Terminal Aerodrome Forecast
Issued by NWS

Home | Current Version | Previous Version | Text Only | Print | Product List | Glossary On
Versions: 1 2 3 4 5 6 7 8 9 10 11 12 13
943
FTUS44 KJAN 031754
TAFHKS
TAF
KHKS 031754Z 0318/0418 07013KT 6SM -RA SCT015 OVC060
     FM032100 07014KT 4SM RA BR OVC015
     FM040600 07010KT 4SM -RA BR OVC007
     FM041400 04007KT 2SM -RA BR OVC004=

USA.gov is the U.S. government's official web portal to all federal, state and local government web resources and services.